Kyokusho Maru — JL6605 — position and weather

sailwx.info

Track history (hours):
 
Tides and Currents Weather Stations Pressure Air Temp Water Temp Dewpoint Dewpoint Depression Visibility Wind Speed Wind Dir Waves Ship Positions

Kyokusho Maru

Last reported at 2016-May-02 23:27 UTC. Time now 2016-May-03 01:06 UTC.
Position N 34°32' E 135°24'.

Length 77 m; draft 5 m.

Type: Tanker. MMSI: 431501667.

Date/timePositionNaut miles runAvg speedWind from/ knotsBaromVisibWave heightAir tempDewpointWater temp
2016-May-02 23:27N 34°32' E 135°24'4 4.2
2016-May-02 22:33N 34°32' E 135°20'1 0.4
2016-May-02 20:25N 34°32' E 135°19'8 9.5
2016-May-02 19:33N 34°35' E 135°09'10 8.6
2016-May-02 18:25N 34°37' E 134°58'  
2016-Apr-25 15:13N 34°37' E 134°56'711.3
2016-Apr-25 14:33N 34°35' E 135°05'1311.9
2016-Apr-25 13:26N 34°22' E 135°02'1010.9
2016-Apr-25 12:33N 34°12' E 135°03'7 1.1
2016-Apr-25 06:32N 34°07' E 135°07'3 0.6
2016-Apr-25 01:26N 34°10' E 135°07'0 0.1
2016-Apr-25 00:29N 34°10' E 135°07'0 0.0
2016-Apr-24 23:32N 34°10' E 135°07'0 0.0
2016-Apr-24 22:33N 34°10' E 135°07'0 0.0
2016-Apr-24 21:32N 34°10' E 135°07'0 0.0
2016-Apr-24 20:23N 34°10' E 135°07'0 0.0
2016-Apr-24 19:32N 34°10' E 135°07'0 0.0
2016-Apr-24 18:32N 34°10' E 135°07'0 0.0
2016-Apr-24 17:17N 34°10' E 135°07'0 0.0
2016-Apr-24 16:32N 34°10' E 135°07'0 0.0
2016-Apr-24 15:32N 34°10' E 135°07'0 0.1
2016-Apr-24 14:32N 34°10' E 135°07'0 0.1
2016-Apr-24 13:33N 34°10' E 135°07'0 0.0
2016-Apr-24 12:32N 34°10' E 135°07'0 0.0
2016-Apr-24 11:32N 34°10' E 135°07'0 0.0
2016-Apr-24 10:32N 34°10' E 135°07'0 0.0
2016-Apr-24 09:32N 34°10' E 135°07'0 0.1
2016-Apr-24 08:32N 34°10' E 135°07'4 4.1
2016-Apr-24 07:34N 34°12' E 135°04'1111.3
2016-Apr-24 06:33N 34°23' E 135°00'1312.7
2016-Apr-24 05:33N 34°36' E 135°03'  
Track history (hours):
 
Tides and Currents Weather Stations Pressure Air Temp Water Temp Dewpoint Dewpoint Depression Visibility Wind Speed Wind Dir Waves Ship Positions

Kyokusho Maru

Last reported at 2016-May-02 23:27 UTC. Time now 2016-May-03 01:06 UTC.
Position N 34°32' E 135°24'.

Length 77 m; draft 5 m.

Type: Tanker. MMSI: 431501667.

Date/timePositionNaut miles runAvg speedWind from/ knotsBaromVisibWave heightAir tempDewpointWater temp
2016-May-02 23:27N 34°32' E 135°24'4 4.2
2016-May-02 22:33N 34°32' E 135°20'1 0.4
2016-May-02 20:25N 34°32' E 135°19'8 9.5
2016-May-02 19:33N 34°35' E 135°09'10 8.6
2016-May-02 18:25N 34°37' E 134°58'  
2016-Apr-25 15:13N 34°37' E 134°56'711.3
2016-Apr-25 14:33N 34°35' E 135°05'1311.9
2016-Apr-25 13:26N 34°22' E 135°02'1010.9
2016-Apr-25 12:33N 34°12' E 135°03'7 1.1
2016-Apr-25 06:32N 34°07' E 135°07'3 0.6
2016-Apr-25 01:26N 34°10' E 135°07'0 0.1
2016-Apr-25 00:29N 34°10' E 135°07'0 0.0
2016-Apr-24 23:32N 34°10' E 135°07'0 0.0
2016-Apr-24 22:33N 34°10' E 135°07'0 0.0
2016-Apr-24 21:32N 34°10' E 135°07'0 0.0
2016-Apr-24 20:23N 34°10' E 135°07'0 0.0
2016-Apr-24 19:32N 34°10' E 135°07'0 0.0
2016-Apr-24 18:32N 34°10' E 135°07'0 0.0
2016-Apr-24 17:17N 34°10' E 135°07'0 0.0
2016-Apr-24 16:32N 34°10' E 135°07'0 0.0
2016-Apr-24 15:32N 34°10' E 135°07'0 0.1
2016-Apr-24 14:32N 34°10' E 135°07'0 0.1
2016-Apr-24 13:33N 34°10' E 135°07'0 0.0
2016-Apr-24 12:32N 34°10' E 135°07'0 0.0
2016-Apr-24 11:32N 34°10' E 135°07'0 0.0
2016-Apr-24 10:32N 34°10' E 135°07'0 0.0
2016-Apr-24 09:32N 34°10' E 135°07'0 0.1
2016-Apr-24 08:32N 34°10' E 135°07'4 4.1
2016-Apr-24 07:34N 34°12' E 135°04'1111.3
2016-Apr-24 06:33N 34°23' E 135°00'1312.7
2016-Apr-24 05:33N 34°36' E 135°03'  

Dump ship's entire track history